Kopperl, TX (76652)

4:23 PM CDT on July 24, 2016 (GMT -0500)
outside of Kopperl, TX | | Change Station

Elev 658 ft 32.06 °N, 97.55 °W | Updated 0 second ago

Partly Cloudy
Partly Cloudy
99.5 °F
Feels Like 103 °F
N
0.4
Wind Variable Wind from ESE
Gusts 2.5 mph

Today
High -- | Low -- °F
--% Chance of Precip.
Yesterday
High -- | Low -- °F
Precip. -- in
Pressure 29.92 in
Visibility 8.0 miles
Clouds Few 6000 ft
Few 10000 ft
Heat Index 103 °F
Dew Point 65 °F
Humidity 33%
Rainfall 0.00 in
Snow Depth Not available.
6:40 AM 8:32 PM
Waning Gibbous, 73% visible
METAR KCPT 242115Z AUTO 09005KT 8SM FEW060 FEW100 37/21 A2992 RMK AO2
Pressure 29.92 in
Visibility 8.0 miles
Clouds Few 6000 ft
Few 10000 ft
Heat Index 103 °F
Dew Point 65 °F
Humidity 33%
Rainfall 0.00 in
Snow Depth Not available.
6:40 AM 8:32 PM
Waning Gibbous, 73% visible
METAR KCPT 242115Z AUTO 09005KT 8SM FEW060 FEW100 37/21 A2992 RMK AO2

10-Day Weather Forecast

Almanac

Astronomy

Jul. 24, 2016 Rise Set
Actual Time
Civil Twilight
Nautical Twilight
Astronomical Twilight
Moon
Length of Visible Light
Length of Day
Tomorrow will be .
, % of the Moon is Illuminated

Today's Extremes

State Highs State Lows

Community

WunderPhotos

Upload Photos

1,927,191 photos uploaded!

WunderBlog® & News

Nearby

Air Quality

  Air Quality AQ Index Pollutant
Not available.

Snow Depth

Station Depth Elevation

Earthquake Activity

City Distance Mag. Time & Date
Minimum magnitude displayed is 2.5.

Coastal Water Temperatures

Place Temperature

Stations

Nearby Weather Stations

Station Location Temp. Windchill Dew Point Humidity Wind Precip. Elev Updated Type
                   

Watches & Warnings

There are currently no watches in effect.